createdAt,value
2022-09-23T00:01:21.510Z,7.77
2022-09-23T00:03:49.563Z,8.33
2022-09-23T00:06:22.882Z,6.40
2022-09-23T00:08:50.926Z,7.20
2022-09-23T00:11:21.750Z,7.20
2022-09-23T00:13:51.445Z,7.67
2022-09-23T00:16:22.186Z,8.00
2022-09-23T00:18:52.454Z,7.80
2022-09-23T00:21:20.779Z,9.30
2022-09-23T00:23:48.715Z,8.47
2022-09-23T00:26:19.318Z,8.20
2022-09-23T00:28:47.756Z,8.10
2022-09-23T00:31:23.653Z,8.50
2022-09-23T00:33:59.612Z,9.70
2022-09-23T00:36:28.825Z,11.00
2022-09-23T00:38:56.113Z,10.87
2022-09-23T00:41:24.156Z,10.77
2022-09-23T00:43:53.352Z,9.23
2022-09-23T00:46:44.027Z,8.90
2022-09-23T00:49:21.355Z,9.10
2022-09-23T00:51:58.934Z,9.70
2022-09-23T00:54:28.220Z,9.73
2022-09-23T00:56:56.977Z,8.93
2022-09-23T00:59:26.573Z,12.90
2022-09-23T01:01:55.184Z,11.43
2022-09-23T01:04:27.746Z,10.90
2022-09-23T01:06:55.645Z,12.77
2022-09-23T01:09:24.233Z,12.60
2022-09-23T01:12:07.112Z,10.53
2022-09-23T01:14:53.948Z,10.93
2022-09-23T01:17:33.988Z,10.20
2022-09-23T01:20:31.840Z,11.37
2022-09-23T01:23:18.077Z,12.67
2022-09-23T01:25:57.425Z,15.93
2022-09-23T01:28:54.123Z,15.03
2022-09-23T01:31:43.540Z,17.70
2022-09-23T01:34:33.996Z,18.27
2022-09-23T01:37:11.821Z,16.30
2022-09-23T01:39:51.027Z,16.20
2022-09-23T01:42:25.189Z,11.30
2022-09-23T01:44:59.492Z,12.13
2022-09-23T01:47:35.936Z,11.23
2022-09-23T01:50:25.337Z,8.67
2022-09-23T01:52:58.397Z,7.97
2022-09-23T01:55:32.286Z,6.20
2022-09-23T01:58:16.438Z,6.33
2022-09-23T02:00:54.518Z,8.60
2022-09-23T02:03:34.591Z,8.37
2022-09-23T02:06:04.628Z,8.43
2022-09-23T02:08:53.683Z,8.60
2022-09-23T02:11:22.388Z,8.30
2022-09-23T02:14:03.259Z,8.90
2022-09-23T02:16:36.291Z,8.27
2022-09-23T02:19:32.371Z,9.73
2022-09-23T02:22:22.573Z,9.17
2022-09-23T02:24:49.978Z,9.10
2022-09-23T02:27:39.933Z,8.87
2022-09-23T02:30:20.648Z,8.57
2022-09-23T02:32:57.224Z,8.40
2022-09-23T02:35:45.366Z,8.07
2022-09-23T02:38:35.492Z,9.33
2022-09-23T02:41:36.825Z,9.20
2022-09-23T02:44:13.260Z,8.93
2022-09-23T02:46:43.659Z,9.20
2022-09-23T02:49:17.850Z,9.90
2022-09-23T02:51:45.796Z,8.90
2022-09-23T02:54:20.522Z,9.63
2022-09-23T02:56:51.050Z,11.67
2022-09-23T02:59:19.849Z,9.93
2022-09-23T03:02:28.906Z,9.43
2022-09-23T03:05:19.306Z,10.80
2022-09-23T03:08:25.986Z,9.33
2022-09-23T03:11:21.597Z,8.47
2022-09-23T03:14:06.945Z,7.93
2022-09-23T03:16:44.299Z,6.93
2022-09-23T03:19:26.171Z,8.53
2022-09-23T03:22:29.629Z,7.43
2022-09-23T03:25:01.992Z,7.00
2022-09-23T03:27:32.895Z,7.20
2022-09-23T03:30:01.277Z,6.37
2022-09-23T03:32:30.090Z,6.60
2022-09-23T03:35:02.201Z,6.40
2022-09-23T03:37:41.748Z,5.73
2022-09-23T03:40:26.218Z,5.97
2022-09-23T03:42:56.424Z,4.50
2022-09-23T03:45:30.067Z,3.70
2022-09-23T03:47:57.881Z,4.63
2022-09-23T03:50:25.181Z,4.53
2022-09-23T03:52:53.110Z,4.50
2022-09-23T03:55:21.628Z,6.30
2022-09-23T03:57:49.677Z,4.47
2022-09-23T04:00:17.574Z,4.47
2022-09-23T04:02:45.884Z,4.87
2022-09-23T04:05:15.289Z,4.77
2022-09-23T04:07:42.860Z,5.27
2022-09-23T04:10:10.839Z,8.13
2022-09-23T04:12:38.544Z,7.00
2022-09-23T04:15:07.051Z,6.33
2022-09-23T04:17:34.586Z,6.37
2022-09-23T04:20:02.106Z,6.43
2022-09-23T04:22:29.479Z,6.43
2022-09-23T04:24:57.080Z,6.13
2022-09-23T04:27:24.534Z,6.43
2022-09-23T04:29:51.913Z,7.67
2022-09-23T04:32:19.223Z,8.63
2022-09-23T04:34:46.454Z,13.70
2022-09-23T04:37:13.990Z,15.00
2022-09-23T04:39:41.248Z,18.63
2022-09-23T04:42:08.566Z,14.40
2022-09-23T04:44:36.054Z,8.53
2022-09-23T04:47:04.627Z,7.97
2022-09-23T04:49:33.553Z,7.60
2022-09-23T04:52:01.052Z,8.80
2022-09-23T04:54:28.375Z,7.47
2022-09-23T04:56:56.032Z,8.67
2022-09-23T04:59:23.605Z,7.47
2022-09-23T05:01:52.174Z,6.77
2022-09-23T05:04:19.664Z,7.13
2022-09-23T05:06:47.043Z,7.03
2022-09-23T05:09:20.045Z,7.83
2022-09-23T05:11:47.416Z,6.53
2022-09-23T05:14:14.861Z,6.70
2022-09-23T05:16:42.532Z,5.43
2022-09-23T05:19:10.014Z,5.30
2022-09-23T05:21:38.286Z,5.07
2022-09-23T05:24:06.091Z,4.57
2022-09-23T05:26:33.671Z,5.40
2022-09-23T05:29:01.169Z,5.07
2022-09-23T05:31:30.514Z,5.63
2022-09-23T05:34:00.115Z,6.80
2022-09-23T05:36:28.869Z,7.17
2022-09-23T05:38:57.269Z,10.27
2022-09-23T05:41:26.054Z,12.47
2022-09-23T05:43:54.690Z,13.90
2022-09-23T05:46:28.260Z,14.80
2022-09-23T05:49:01.846Z,13.10
2022-09-23T05:51:31.316Z,12.60
2022-09-23T05:53:59.934Z,11.00
2022-09-23T05:56:28.820Z,9.57
2022-09-23T05:58:58.584Z,9.00
2022-09-23T06:01:28.589Z,8.47
2022-09-23T06:03:57.965Z,9.40
2022-09-23T06:06:29.768Z,9.53
2022-09-23T06:08:57.679Z,12.43
2022-09-23T06:11:25.638Z,23.53
2022-09-23T06:13:57.244Z,11.07
2022-09-23T06:16:24.731Z,9.73
2022-09-23T06:18:52.159Z,9.20
2022-09-23T06:21:19.876Z,9.07
2022-09-23T06:23:47.445Z,9.60
2022-09-23T06:26:16.722Z,7.37
2022-09-23T06:28:45.362Z,6.80
2022-09-23T06:31:15.615Z,5.93
2022-09-23T06:33:45.247Z,5.70
2022-09-23T06:36:20.869Z,5.80
2022-09-23T06:38:51.846Z,6.00
2022-09-23T06:41:21.048Z,5.30
2022-09-23T06:43:48.617Z,5.07
2022-09-23T06:46:17.356Z,5.33
2022-09-23T06:48:46.253Z,5.07
2022-09-23T06:51:21.920Z,4.47
2022-09-23T06:53:49.889Z,4.50
2022-09-23T06:56:20.028Z,4.83
2022-09-23T06:58:47.469Z,4.30
2022-09-23T07:01:18.274Z,4.30
2022-09-23T07:03:47.534Z,4.20
2022-09-23T07:06:14.878Z,4.47
2022-09-23T07:08:45.595Z,4.03
2022-09-23T07:11:13.605Z,4.27
2022-09-23T07:13:42.519Z,4.93
2022-09-23T07:16:12.113Z,3.97
2022-09-23T07:18:39.957Z,4.43
2022-09-23T07:21:10.563Z,4.30
2022-09-23T07:23:38.212Z,4.43
2022-09-23T07:26:06.203Z,4.53
2022-09-23T07:28:33.980Z,4.87
2022-09-23T07:31:07.114Z,4.27
2022-09-23T07:33:40.162Z,4.80
2022-09-23T07:36:10.351Z,4.70
2022-09-23T07:38:42.951Z,4.60
2022-09-23T07:41:14.528Z,4.20
2022-09-23T07:43:42.128Z,4.70
2022-09-23T07:46:13.337Z,4.57
2022-09-23T07:48:41.076Z,4.27
2022-09-23T07:51:22.640Z,4.23
2022-09-23T07:53:54.575Z,4.00
2022-09-23T07:56:26.138Z,3.77
2022-09-23T07:59:06.179Z,3.97
2022-09-23T08:01:36.537Z,3.70
2022-09-23T08:04:25.739Z,7.23
2022-09-23T08:06:58.412Z,4.10
2022-09-23T08:09:29.045Z,3.90
2022-09-23T08:11:56.554Z,3.60
2022-09-23T08:14:24.124Z,4.00
2022-09-23T08:16:52.503Z,3.23
2022-09-23T08:19:20.084Z,3.23
2022-09-23T08:21:47.841Z,4.03
2022-09-23T08:24:20.037Z,3.40
2022-09-23T08:26:48.879Z,3.00
2022-09-23T08:29:17.979Z,3.13
2022-09-23T08:31:45.647Z,2.87
2022-09-23T08:34:13.545Z,3.40
2022-09-23T08:36:40.896Z,4.23
2022-09-23T08:39:09.161Z,4.30
2022-09-23T08:41:39.210Z,3.13
2022-09-23T08:44:19.646Z,2.70
2022-09-23T08:47:08.071Z,3.50
2022-09-23T08:49:52.443Z,2.75
2022-09-23T08:52:29.218Z,2.97
2022-09-23T08:54:56.855Z,2.60
2022-09-23T08:57:44.165Z,2.50
2022-09-23T09:00:20.448Z,2.93
2022-09-23T09:02:50.262Z,2.58
2022-09-23T09:05:25.780Z,2.25
2022-09-23T09:07:57.939Z,2.30
2022-09-23T09:10:41.991Z,2.20
2022-09-23T09:13:35.032Z,2.65
2022-09-23T09:16:31.693Z,2.10
2022-09-23T09:19:17.364Z,1.90
2022-09-23T09:21:48.415Z,1.55
2022-09-23T09:24:39.173Z,1.95
2022-09-23T09:27:12.309Z,1.00
2022-09-23T09:29:43.956Z,1.70
2022-09-23T09:32:46.566Z,1.10
2022-09-23T09:35:38.090Z,1.38
2022-09-23T09:38:09.202Z,1.05
2022-09-23T09:40:46.334Z,1.65
2022-09-23T09:43:23.771Z,2.28
2022-09-23T09:46:14.394Z,1.10
2022-09-23T09:49:02.643Z,1.40
2022-09-23T09:51:30.432Z,1.10
2022-09-23T09:54:18.371Z,1.30
2022-09-23T09:59:24.958Z,2.47
2022-09-23T10:02:32.352Z,1.30
2022-09-23T10:05:23.455Z,1.08
2022-09-23T10:07:50.717Z,1.27
2022-09-23T10:10:32.311Z,0.73
2022-09-23T10:13:15.662Z,1.33
2022-09-23T10:15:45.467Z,1.08
2022-09-23T10:18:48.646Z,1.08
2022-09-23T10:21:23.116Z,1.20
2022-09-23T10:23:58.967Z,1.25
2022-09-23T10:26:33.609Z,0.90
2022-09-23T10:29:20.592Z,0.98
2022-09-23T10:31:47.950Z,1.20
2022-09-23T10:34:29.840Z,1.50
2022-09-23T10:37:10.127Z,0.95
2022-09-23T10:39:55.950Z,1.40
2022-09-23T10:42:54.251Z,1.30
2022-09-23T10:45:46.868Z,0.85
2022-09-23T10:48:17.278Z,1.35
2022-09-23T10:50:51.911Z,1.13
2022-09-23T10:53:43.402Z,0.93
2022-09-23T10:56:10.629Z,0.90
2022-09-23T10:59:07.221Z,0.90
2022-09-23T11:01:40.703Z,0.90
2022-09-23T11:04:40.517Z,0.80
2022-09-23T11:07:28.266Z,1.20
2022-09-23T11:10:45.465Z,1.43
2022-09-23T11:13:23.616Z,1.00
2022-09-23T11:16:32.143Z,1.15
2022-09-23T11:19:34.077Z,1.00
2022-09-23T11:22:23.659Z,0.88
2022-09-23T11:25:23.869Z,1.05
2022-09-23T11:28:20.932Z,0.93
2022-09-23T11:31:17.365Z,0.70
2022-09-23T11:34:05.005Z,0.93
2022-09-23T11:36:40.339Z,1.08
2022-09-23T11:39:31.467Z,1.00
2022-09-23T11:42:01.936Z,1.10
2022-09-23T11:44:37.779Z,0.93
2022-09-23T11:47:16.986Z,1.10
2022-09-23T11:49:56.591Z,0.93
2022-09-23T11:52:33.809Z,0.90
2022-09-23T11:55:21.935Z,1.00
2022-09-23T11:58:10.598Z,1.00
2022-09-23T12:01:01.063Z,0.98
2022-09-23T12:03:40.895Z,0.80
2022-09-23T12:06:36.725Z,0.90
2022-09-23T12:09:53.858Z,1.10
2022-09-23T12:12:34.736Z,0.60
2022-09-23T12:15:11.415Z,0.70
2022-09-23T12:17:44.883Z,0.70
2022-09-23T12:20:32.962Z,0.60
2022-09-23T12:23:15.333Z,0.32
2022-09-23T12:26:09.508Z,0.57
2022-09-23T12:28:41.295Z,0.40
2022-09-23T12:31:31.068Z,0.65
2022-09-23T12:34:01.141Z,0.50
2022-09-23T12:36:36.638Z,0.40
2022-09-23T12:39:38.907Z,0.50
2022-09-23T12:42:14.855Z,0.60
2022-09-23T12:44:44.713Z,0.50
2022-09-23T12:47:15.173Z,0.57
2022-09-23T12:49:44.105Z,0.50
2022-09-23T12:52:11.337Z,0.60
2022-09-23T12:54:40.565Z,0.70
2022-09-23T12:57:33.548Z,0.50
2022-09-23T13:00:15.543Z,0.40
2022-09-23T13:03:21.774Z,0.50
2022-09-23T13:06:11.769Z,0.60
2022-09-23T13:08:42.598Z,0.50
2022-09-23T13:11:22.777Z,0.45
2022-09-23T13:13:51.313Z,0.57
2022-09-23T13:16:32.122Z,0.60
2022-09-23T13:19:04.790Z,0.40
2022-09-23T13:21:45.131Z,0.50
2022-09-23T13:24:21.215Z,0.60
2022-09-23T13:26:54.628Z,0.50
2022-09-23T13:29:35.235Z,0.60
2022-09-23T13:32:03.400Z,0.40
2022-09-23T13:34:37.137Z,0.40
2022-09-23T13:37:24.996Z,0.90
2022-09-23T13:39:52.447Z,0.65
2022-09-23T13:42:30.829Z,0.40
2022-09-23T13:45:00.771Z,0.63
2022-09-23T13:47:31.286Z,0.52
2022-09-23T13:49:58.960Z,0.50
2022-09-23T13:52:33.257Z,0.65
2022-09-23T13:55:00.617Z,0.70
2022-09-23T13:57:31.041Z,1.55
2022-09-23T14:00:18.672Z,2.67
2022-09-23T14:02:49.036Z,14.07
2022-09-23T14:05:27.554Z,0.93
2022-09-23T14:07:56.693Z,3.15
2022-09-23T14:10:27.978Z,2.72
2022-09-23T14:12:56.862Z,0.93
2022-09-23T14:15:24.609Z,1.20
2022-09-23T14:18:02.524Z,2.50
2022-09-23T14:20:29.955Z,3.83
2022-09-23T14:23:11.595Z,0.80
2022-09-23T14:25:41.623Z,0.80
2022-09-23T14:28:19.357Z,0.57
2022-09-23T14:30:48.391Z,0.70
2022-09-23T14:33:34.513Z,0.70
2022-09-23T14:36:29.193Z,1.37
2022-09-23T14:39:07.650Z,0.70
2022-09-23T14:41:44.717Z,0.70
2022-09-23T14:44:27.082Z,0.83
2022-09-23T14:47:00.058Z,0.60
2022-09-23T14:49:28.474Z,0.83
2022-09-23T14:52:00.846Z,0.50
2022-09-23T14:54:37.858Z,0.60
2022-09-23T14:57:29.496Z,0.80
2022-09-23T15:00:00.733Z,1.70
2022-09-23T15:02:40.169Z,0.60
2022-09-23T15:05:20.542Z,0.50
2022-09-23T15:07:53.573Z,0.50
2022-09-23T15:10:29.063Z,0.60
2022-09-23T15:13:21.196Z,0.40
2022-09-23T15:15:48.933Z,1.03
2022-09-23T15:18:25.907Z,0.40
2022-09-23T15:21:01.156Z,0.50
2022-09-23T15:23:55.404Z,0.50
2022-09-23T15:26:46.767Z,0.70
2022-09-23T15:29:14.061Z,0.60
2022-09-23T15:31:41.457Z,1.40
2022-09-23T15:34:11.484Z,3.27
2022-09-23T15:36:38.961Z,10.13
2022-09-23T15:39:08.902Z,12.83
2022-09-23T15:41:36.398Z,14.07
2022-09-23T15:44:13.176Z,4.93
2022-09-23T15:46:46.774Z,9.63
2022-09-23T15:49:28.870Z,48.03
2022-09-23T15:52:01.002Z,20.80
2022-09-23T15:54:29.539Z,12.70
2022-09-23T15:56:56.893Z,18.53
2022-09-23T15:59:25.111Z,12.13
2022-09-23T16:01:53.838Z,12.40
2022-09-23T16:04:21.166Z,11.87
2022-09-23T16:06:48.917Z,10.13
2022-09-23T16:09:16.541Z,9.80
2022-09-23T16:11:49.966Z,9.83
2022-09-23T16:14:18.569Z,26.37
2022-09-23T16:16:48.153Z,24.30
2022-09-23T16:19:16.579Z,27.20
2022-09-23T16:21:45.148Z,18.17
2022-09-23T16:24:18.172Z,17.03
2022-09-23T16:26:48.397Z,19.57
2022-09-23T16:29:15.787Z,21.23
2022-09-23T16:31:44.102Z,19.67
2022-09-23T16:34:11.607Z,9.80
2022-09-23T16:36:42.157Z,4.70
2022-09-23T16:39:12.821Z,1.77
2022-09-23T16:41:40.753Z,1.30
2022-09-23T16:44:09.635Z,1.70
2022-09-23T16:46:37.437Z,2.17
2022-09-23T16:49:05.430Z,4.27
2022-09-23T16:51:40.665Z,4.30
2022-09-23T16:54:10.893Z,2.93
2022-09-23T16:56:44.594Z,3.67
2022-09-23T16:59:16.389Z,3.97
2022-09-23T17:02:02.652Z,2.70
2022-09-23T17:04:30.082Z,3.23
2022-09-23T17:06:58.369Z,1.70
2022-09-23T17:09:28.222Z,1.27
2022-09-23T17:12:15.433Z,2.10
2022-09-23T17:14:44.224Z,1.70
2022-09-23T17:17:11.551Z,2.07
2022-09-23T17:19:41.637Z,2.80
2022-09-23T17:22:10.102Z,2.47
2022-09-23T17:24:37.435Z,3.47
2022-09-23T17:27:04.731Z,4.70
2022-09-23T17:29:32.112Z,3.87
2022-09-23T17:31:59.640Z,4.30
2022-09-23T17:34:29.391Z,5.87
2022-09-23T17:36:56.759Z,3.70
2022-09-23T17:39:24.085Z,2.50
2022-09-23T17:41:51.769Z,2.40
2022-09-23T17:44:19.211Z,2.50
2022-09-23T17:46:49.582Z,2.00
2022-09-23T17:49:21.405Z,2.47
2022-09-23T17:51:48.744Z,3.20
2022-09-23T17:54:16.449Z,4.13
2022-09-23T17:56:44.071Z,4.87
2022-09-23T17:59:15.279Z,2.83
2022-09-23T18:01:42.734Z,1.80
2022-09-23T18:04:10.239Z,2.57
2022-09-23T18:06:38.242Z,3.47
2022-09-23T18:09:07.671Z,16.53
2022-09-23T18:11:38.258Z,18.43
2022-09-23T18:14:15.706Z,23.27
2022-09-23T18:16:45.773Z,11.50
2022-09-23T18:19:24.672Z,11.17
2022-09-23T18:21:54.874Z,8.70
2022-09-23T18:24:38.415Z,14.70
2022-09-23T18:27:06.828Z,19.00
2022-09-23T18:29:35.449Z,14.87
2022-09-23T18:32:03.541Z,11.80
2022-09-23T18:34:31.032Z,9.87
2022-09-23T18:37:01.418Z,5.93
2022-09-23T18:39:29.472Z,3.27
2022-09-23T18:41:56.904Z,5.97
2022-09-23T18:44:24.640Z,12.27
2022-09-23T18:46:52.253Z,16.43
2022-09-23T18:49:37.994Z,13.50
2022-09-23T18:52:05.368Z,11.50
2022-09-23T18:54:33.015Z,12.47
2022-09-23T18:57:00.653Z,11.00
2022-09-23T18:59:29.939Z,4.97
2022-09-23T19:01:58.143Z,6.60
2022-09-23T19:04:26.852Z,6.50
2022-09-23T19:06:56.858Z,6.57
2022-09-23T19:09:24.486Z,5.20
2022-09-23T19:11:53.403Z,5.80
2022-09-23T19:14:21.034Z,6.27
2022-09-23T19:16:52.265Z,7.80
2022-09-23T19:19:19.660Z,9.50
2022-09-23T19:21:47.029Z,10.60
2022-09-23T19:24:20.282Z,13.53
2022-09-23T19:26:47.695Z,22.37
2022-09-23T19:29:19.774Z,18.67
2022-09-23T19:31:47.146Z,15.13
2022-09-23T19:34:20.038Z,13.13
2022-09-23T19:36:48.206Z,14.60
2022-09-23T19:39:23.121Z,10.73
2022-09-23T19:41:52.526Z,9.40
2022-09-23T19:44:20.371Z,9.27
2022-09-23T19:46:55.120Z,12.50
2022-09-23T19:49:24.899Z,10.90
2022-09-23T19:51:56.189Z,8.77
2022-09-23T19:54:29.800Z,8.67
2022-09-23T19:56:57.101Z,12.33
2022-09-23T19:59:26.662Z,14.07
2022-09-23T20:01:54.126Z,14.00
2022-09-23T20:04:25.411Z,15.67
2022-09-23T20:06:52.706Z,28.87
2022-09-23T20:09:20.014Z,29.03
2022-09-23T20:11:47.454Z,28.03
2022-09-23T20:14:15.586Z,82.17
2022-09-23T20:16:43.383Z,37.70
2022-09-23T20:19:11.494Z,57.30
2022-09-23T20:21:38.896Z,72.10
2022-09-23T20:24:07.190Z,79.90
2022-09-23T20:26:52.854Z,33.27
2022-09-23T20:29:20.204Z,13.47
2022-09-23T20:31:47.782Z,12.60
2022-09-23T20:34:15.515Z,9.10
2022-09-23T20:36:42.912Z,10.57
2022-09-23T20:39:10.741Z,13.83
2022-09-23T20:41:39.892Z,17.30
2022-09-23T20:44:14.030Z,22.57
2022-09-23T20:46:48.435Z,32.73
2022-09-23T20:49:19.898Z,32.77
2022-09-23T20:51:50.868Z,35.03
2022-09-23T20:54:21.279Z,32.20
2022-09-23T20:56:48.713Z,29.10
2022-09-23T20:59:18.202Z,26.33
2022-09-23T21:01:46.056Z,27.20
2022-09-23T21:04:13.588Z,22.63
2022-09-23T21:06:40.894Z,21.37
2022-09-23T21:09:08.314Z,22.50
2022-09-23T21:11:35.999Z,21.90
2022-09-23T21:14:03.465Z,21.67
2022-09-23T21:16:31.234Z,26.03
2022-09-23T21:18:59.228Z,28.93
2022-09-23T21:21:26.886Z,28.37
2022-09-23T21:23:54.332Z,31.67
2022-09-23T21:26:24.057Z,21.27
2022-09-23T21:28:59.295Z,14.43
2022-09-23T21:31:39.008Z,12.63
2022-09-23T21:34:09.120Z,16.03
2022-09-23T21:36:38.739Z,26.00
2022-09-23T21:39:07.288Z,22.33
2022-09-23T21:41:35.284Z,31.07
2022-09-23T21:44:04.769Z,31.67
2022-09-23T21:46:35.730Z,23.30
2022-09-23T21:49:04.235Z,18.63
2022-09-23T21:51:41.180Z,17.67
2022-09-23T21:54:13.283Z,14.10
2022-09-23T21:56:40.687Z,12.23
2022-09-23T21:59:08.377Z,13.47
2022-09-23T22:01:38.488Z,11.07
2022-09-23T22:04:18.358Z,8.73
2022-09-23T22:06:46.850Z,8.07
2022-09-23T22:09:17.766Z,8.80
2022-09-23T22:12:03.569Z,7.93
2022-09-23T22:14:31.476Z,8.00
2022-09-23T22:17:01.731Z,8.20
2022-09-23T22:19:33.114Z,8.23
2022-09-23T22:22:01.047Z,9.03
2022-09-23T22:24:28.719Z,12.83
2022-09-23T22:26:56.001Z,13.17
2022-09-23T22:29:41.885Z,15.47
2022-09-23T22:32:30.835Z,15.30
2022-09-23T22:34:58.251Z,12.83
2022-09-23T22:37:28.840Z,13.03
2022-09-23T22:39:56.511Z,10.83
2022-09-23T22:42:23.955Z,10.73
2022-09-23T22:44:52.092Z,13.63
2022-09-23T22:47:20.574Z,14.97
2022-09-23T22:49:48.959Z,15.47
2022-09-23T22:52:21.382Z,17.50
2022-09-23T22:54:48.867Z,19.27
2022-09-23T22:57:16.233Z,20.27
2022-09-23T22:59:48.338Z,19.23
2022-09-23T23:02:24.326Z,18.07
2022-09-23T23:04:51.804Z,19.73
2022-09-23T23:07:21.383Z,20.17
2022-09-23T23:09:51.165Z,21.13
2022-09-23T23:12:20.660Z,20.70
2022-09-23T23:14:49.660Z,22.17
2022-09-23T23:17:17.574Z,20.53
2022-09-23T23:19:44.933Z,20.77
2022-09-23T23:22:12.194Z,21.17
2022-09-23T23:24:39.607Z,19.53
2022-09-23T23:27:07.013Z,18.80
2022-09-23T23:29:34.443Z,19.30
2022-09-23T23:32:02.012Z,17.93
2022-09-23T23:34:29.304Z,17.77
2022-09-23T23:36:56.607Z,20.50
2022-09-23T23:39:25.709Z,20.60
2022-09-23T23:41:55.223Z,21.30
2022-09-23T23:44:24.034Z,17.37
2022-09-23T23:46:52.110Z,17.43
2022-09-23T23:49:19.955Z,19.70
2022-09-23T23:51:48.118Z,18.93
2022-09-23T23:54:15.875Z,18.97
2022-09-23T23:56:43.472Z,19.47
2022-09-23T23:59:10.993Z,17.40
